createdAt,value
2023-01-30T00:02:14.563Z,-2.60
2023-01-30T00:05:11.520Z,-2.70
2023-01-30T00:08:08.316Z,-2.60
2023-01-30T00:11:06.982Z,-2.50
2023-01-30T00:14:03.969Z,-2.50
2023-01-30T00:17:00.719Z,-2.50
2023-01-30T00:19:57.694Z,-2.50
2023-01-30T00:23:00.717Z,-2.50
2023-01-30T00:25:57.927Z,-2.50
2023-01-30T00:28:54.711Z,-2.50
2023-01-30T00:31:51.482Z,-2.50
2023-01-30T00:34:48.309Z,-2.50
2023-01-30T00:37:45.057Z,-2.50
2023-01-30T00:40:42.520Z,-2.50
2023-01-30T00:43:57.801Z,-2.50
2023-01-30T00:47:06.689Z,-2.50
2023-01-30T00:50:03.537Z,-2.50
2023-01-30T00:53:00.289Z,-2.50
2023-01-30T00:55:57.093Z,-2.50
2023-01-30T00:58:54.301Z,-2.40
2023-01-30T01:01:51.661Z,-2.40
2023-01-30T01:04:48.494Z,-2.50
2023-01-30T01:07:45.278Z,-2.50
2023-01-30T01:10:42.186Z,-2.50
2023-01-30T01:13:39.239Z,-2.40
2023-01-30T01:16:36.247Z,-2.40
2023-01-30T01:19:33.077Z,-2.50
2023-01-30T01:22:29.843Z,-2.40
2023-01-30T01:25:26.776Z,-2.40
2023-01-30T01:28:23.555Z,-2.40
2023-01-30T01:31:20.463Z,-2.40
2023-01-30T01:34:17.327Z,-2.40
2023-01-30T01:37:14.178Z,-2.40
2023-01-30T01:40:36.161Z,-2.40
2023-01-30T01:43:35.618Z,-2.40
2023-01-30T01:46:42.843Z,-2.30
2023-01-30T01:49:39.718Z,-2.30
2023-01-30T01:52:36.638Z,-2.40
2023-01-30T01:55:34.065Z,-2.30
2023-01-30T01:58:47.775Z,-2.30
2023-01-30T02:01:44.709Z,-2.30
2023-01-30T02:05:03.845Z,-2.40
2023-01-30T02:08:08.564Z,-2.40
2023-01-30T02:11:09.550Z,-2.40
2023-01-30T02:14:06.470Z,-2.40
2023-01-30T02:17:03.279Z,-2.40
2023-01-30T02:20:03.165Z,-2.40
2023-01-30T02:23:31.006Z,-2.40
2023-01-30T02:26:38.505Z,-2.30
2023-01-30T02:30:02.738Z,-2.30
2023-01-30T02:33:05.149Z,-2.30
2023-01-30T02:36:11.538Z,-2.30
2023-01-30T02:39:49.237Z,-2.30
2023-01-30T02:43:11.133Z,-2.30
2023-01-30T02:46:33.957Z,-2.30
2023-01-30T02:49:41.093Z,-2.30
2023-01-30T02:52:39.369Z,-2.30
2023-01-30T02:55:36.466Z,-2.30
2023-01-30T02:58:38.398Z,-2.20
2023-01-30T03:02:07.508Z,-2.20
2023-01-30T03:05:42.418Z,-2.20
2023-01-30T03:09:00.068Z,-2.20
2023-01-30T03:12:02.913Z,-2.20
2023-01-30T03:15:04.800Z,-2.10
2023-01-30T03:18:02.579Z,-2.20
2023-01-30T03:21:04.919Z,-2.10
2023-01-30T03:24:01.698Z,-2.10
2023-01-30T03:27:16.457Z,-2.10
2023-01-30T03:30:13.579Z,-2.10
2023-01-30T03:33:10.545Z,-2.00
2023-01-30T03:36:07.734Z,-2.10
2023-01-30T03:39:04.514Z,-2.10
2023-01-30T03:42:01.276Z,-2.00
2023-01-30T03:44:58.071Z,-2.00
2023-01-30T03:47:55.021Z,-2.00
2023-01-30T03:50:51.832Z,-2.00
2023-01-30T03:53:48.697Z,-1.90
2023-01-30T03:56:45.615Z,-1.90
2023-01-30T03:59:42.390Z,-1.90
2023-01-30T04:02:39.169Z,-1.90
2023-01-30T04:05:35.981Z,-1.80
2023-01-30T04:08:33.637Z,-1.80
2023-01-30T04:11:30.413Z,-1.80
2023-01-30T04:14:27.182Z,-1.80
2023-01-30T04:17:23.949Z,-1.70
2023-01-30T04:20:20.727Z,-1.70
2023-01-30T04:23:17.530Z,-1.70
2023-01-30T04:26:14.377Z,-1.70
2023-01-30T04:29:11.164Z,-1.70
2023-01-30T04:32:08.100Z,-1.70
2023-01-30T04:35:05.155Z,-1.70
2023-01-30T04:38:01.981Z,-1.60
2023-01-30T04:40:59.631Z,-1.60
2023-01-30T04:43:56.406Z,-1.70
2023-01-30T04:46:54.901Z,-1.60
2023-01-30T04:49:51.690Z,-1.60
2023-01-30T04:52:48.458Z,-1.60
2023-01-30T04:55:45.220Z,-1.50
2023-01-30T04:58:41.995Z,-1.50
2023-01-30T05:01:39.347Z,-1.50
2023-01-30T05:04:36.138Z,-1.40
2023-01-30T05:07:33.082Z,-1.50
2023-01-30T05:10:29.944Z,-1.50
2023-01-30T05:13:26.709Z,-1.40
2023-01-30T05:16:24.181Z,-1.30
2023-01-30T05:19:20.965Z,-1.30
2023-01-30T05:22:17.935Z,-1.30
2023-01-30T05:25:14.832Z,-1.20
2023-01-30T05:28:11.769Z,-1.30
2023-01-30T05:31:11.004Z,-1.20
2023-01-30T05:34:11.753Z,-1.30
2023-01-30T05:37:09.454Z,-1.20
2023-01-30T05:40:06.667Z,-1.20
2023-01-30T05:43:03.468Z,-1.10
2023-01-30T05:46:01.848Z,-1.10
2023-01-30T05:48:58.683Z,-1.00
2023-01-30T05:51:55.504Z,-1.00
2023-01-30T05:54:52.297Z,-0.90
2023-01-30T05:57:49.049Z,-1.00
2023-01-30T06:00:45.824Z,-1.00
2023-01-30T06:03:43.116Z,-1.00
2023-01-30T06:06:40.183Z,-1.00
2023-01-30T06:09:36.957Z,-1.00
2023-01-30T06:12:33.700Z,-0.90
2023-01-30T06:15:30.533Z,-0.90
2023-01-30T06:18:27.552Z,-0.90
2023-01-30T06:21:24.366Z,-0.80
2023-01-30T06:24:21.112Z,-0.90
2023-01-30T06:27:17.884Z,-0.90
2023-01-30T06:30:14.807Z,-0.90
2023-01-30T06:33:11.760Z,-0.80
2023-01-30T06:36:08.828Z,-0.90
2023-01-30T06:39:05.593Z,-0.90
2023-01-30T06:42:02.797Z,-0.80
2023-01-30T06:44:59.700Z,-0.80
2023-01-30T06:48:04.205Z,-0.80
2023-01-30T06:51:01.016Z,-0.70
2023-01-30T06:53:57.776Z,-0.60
2023-01-30T06:56:54.533Z,-0.60
2023-01-30T06:59:51.289Z,-0.60
2023-01-30T07:02:48.040Z,-0.60
2023-01-30T07:05:46.894Z,-0.60
2023-01-30T07:08:44.457Z,-0.60
2023-01-30T07:11:41.302Z,-0.50
2023-01-30T07:14:38.075Z,-0.50
2023-01-30T07:17:34.821Z,-0.50
2023-01-30T07:20:31.645Z,-0.50
2023-01-30T07:23:28.707Z,-0.50
2023-01-30T07:26:25.924Z,-0.50
2023-01-30T07:29:22.784Z,-0.50
2023-01-30T07:32:20.004Z,-0.50
2023-01-30T07:35:16.752Z,-0.50
2023-01-30T07:38:13.562Z,-0.30
2023-01-30T07:41:10.329Z,-0.30
2023-01-30T07:44:07.670Z,-0.40
2023-01-30T07:47:04.531Z,-0.30
2023-01-30T07:50:01.449Z,-0.30
2023-01-30T07:52:58.206Z,-0.30
2023-01-30T07:55:54.968Z,-0.30
2023-01-30T07:58:52.206Z,-0.30
2023-01-30T08:01:48.998Z,-0.20
2023-01-30T08:04:45.866Z,-0.20
2023-01-30T08:07:43.267Z,-0.20
2023-01-30T08:10:40.066Z,-0.20
2023-01-30T08:13:37.167Z,-0.20
2023-01-30T08:16:34.170Z,-0.20
2023-01-30T08:19:30.985Z,-0.20
2023-01-30T08:22:28.757Z,-0.30
2023-01-30T08:25:25.871Z,-0.20
2023-01-30T08:28:22.668Z,-0.20
2023-01-30T08:31:19.448Z,-0.10
2023-01-30T08:34:16.244Z,-0.10
2023-01-30T08:37:13.056Z,-0.10
2023-01-30T08:40:10.784Z,-0.10
2023-01-30T08:43:07.589Z,0.00
2023-01-30T08:46:04.576Z,0.10
2023-01-30T08:49:01.683Z,0.00
2023-01-30T08:51:58.769Z,0.00
2023-01-30T08:54:55.967Z,-0.10
2023-01-30T08:57:56.096Z,0.00
2023-01-30T09:00:52.973Z,0.00
2023-01-30T09:03:49.811Z,0.00
2023-01-30T09:06:46.638Z,0.10
2023-01-30T09:09:43.562Z,0.00
2023-01-30T09:12:40.373Z,-0.10
2023-01-30T09:15:37.616Z,0.00
2023-01-30T09:18:34.418Z,0.00
2023-01-30T09:21:32.147Z,0.00
2023-01-30T09:24:29.447Z,0.10
2023-01-30T09:27:26.219Z,0.10
2023-01-30T09:30:23.037Z,0.20
2023-01-30T09:33:20.449Z,0.00
2023-01-30T09:36:17.768Z,0.20
2023-01-30T09:39:14.544Z,0.10
2023-01-30T09:42:28.868Z,0.30
2023-01-30T09:45:40.694Z,0.30
2023-01-30T09:49:22.421Z,0.30
2023-01-30T09:52:51.719Z,0.50
2023-01-30T09:55:48.881Z,0.40
2023-01-30T09:58:59.745Z,0.50
2023-01-30T10:01:56.605Z,0.50
2023-01-30T10:05:01.782Z,0.50
2023-01-30T10:08:22.399Z,0.40
2023-01-30T10:11:39.348Z,0.50
2023-01-30T10:14:46.297Z,0.50
2023-01-30T10:18:17.102Z,0.60
2023-01-30T10:21:28.992Z,0.50
2023-01-30T10:24:50.915Z,0.60
2023-01-30T10:27:59.555Z,0.60
2023-01-30T10:31:06.940Z,0.70
2023-01-30T10:34:09.622Z,0.70
2023-01-30T10:37:15.181Z,0.70
2023-01-30T10:40:15.078Z,0.70
2023-01-30T10:43:33.006Z,0.90
2023-01-30T10:46:54.304Z,1.00
2023-01-30T10:49:57.723Z,0.90
2023-01-30T10:53:02.667Z,1.00
2023-01-30T10:56:41.289Z,0.90
2023-01-30T10:59:56.304Z,0.80
2023-01-30T11:03:21.664Z,0.80
2023-01-30T11:06:26.602Z,0.90
2023-01-30T11:09:24.732Z,0.80
2023-01-30T11:12:21.534Z,0.80
2023-01-30T11:15:18.497Z,0.80
2023-01-30T11:19:14.094Z,0.80
2023-01-30T11:21:43.578Z,0.80
2023-01-30T11:24:43.547Z,0.80
2023-01-30T11:27:41.901Z,0.80
2023-01-30T11:30:39.131Z,0.80
2023-01-30T11:33:41.190Z,0.90
2023-01-30T11:36:38.971Z,0.90
2023-01-30T11:39:35.754Z,0.90
2023-01-30T11:42:32.578Z,1.00
2023-01-30T11:45:30.703Z,1.00
2023-01-30T11:48:32.880Z,1.00
2023-01-30T11:51:48.210Z,1.10
2023-01-30T11:54:46.024Z,1.10
2023-01-30T11:57:51.132Z,1.10
2023-01-30T12:00:49.139Z,1.00
2023-01-30T12:03:50.381Z,1.10
2023-01-30T12:07:04.248Z,1.10
2023-01-30T12:10:01.129Z,1.20
2023-01-30T12:13:09.487Z,1.30
2023-01-30T12:16:22.589Z,1.40
2023-01-30T12:19:49.387Z,1.50
2023-01-30T12:22:51.843Z,1.60
2023-01-30T12:26:02.991Z,1.60
2023-01-30T12:29:22.543Z,1.80
2023-01-30T12:32:22.055Z,1.90
2023-01-30T12:35:24.207Z,2.00
2023-01-30T12:38:50.001Z,2.00
2023-01-30T12:42:25.365Z,2.10
2023-01-30T12:45:28.356Z,2.10
2023-01-30T12:48:48.656Z,2.00
2023-01-30T12:52:14.496Z,2.10
2023-01-30T12:55:36.530Z,2.00
2023-01-30T12:58:45.809Z,2.00
2023-01-30T13:02:10.530Z,1.90
2023-01-30T13:05:39.544Z,2.00
2023-01-30T13:08:45.268Z,2.00
2023-01-30T13:11:45.492Z,1.90
2023-01-30T13:15:04.382Z,1.90
2023-01-30T13:18:29.408Z,1.90
2023-01-30T13:21:39.482Z,2.00
2023-01-30T13:24:51.732Z,2.00
2023-01-30T13:27:58.839Z,2.00
2023-01-30T13:30:56.254Z,2.00
2023-01-30T13:34:05.807Z,1.90
2023-01-30T13:37:08.669Z,1.80
2023-01-30T13:40:27.903Z,1.80
2023-01-30T13:43:56.309Z,1.90
2023-01-30T13:46:54.671Z,1.80
2023-01-30T13:50:15.005Z,1.90
2023-01-30T13:53:23.629Z,2.00
2023-01-30T13:56:46.389Z,2.10
2023-01-30T14:00:36.899Z,2.10
2023-01-30T14:03:34.434Z,2.20
2023-01-30T14:06:35.223Z,2.30
2023-01-30T14:09:33.898Z,2.40
2023-01-30T14:12:40.539Z,2.40
2023-01-30T14:15:39.516Z,2.60
2023-01-30T14:18:38.798Z,2.50
2023-01-30T14:21:35.949Z,2.50
2023-01-30T14:24:32.754Z,2.70
2023-01-30T14:27:32.105Z,2.70
2023-01-30T14:30:45.496Z,2.60
2023-01-30T14:33:50.146Z,2.70
2023-01-30T14:36:47.247Z,2.70
2023-01-30T14:39:49.393Z,2.60
2023-01-30T14:43:06.103Z,2.60
2023-01-30T14:46:08.759Z,2.60
2023-01-30T14:49:19.466Z,2.60
2023-01-30T14:52:33.482Z,2.70
2023-01-30T14:55:30.793Z,2.80
2023-01-30T14:58:27.612Z,2.80
2023-01-30T15:01:24.465Z,2.80
2023-01-30T15:04:21.387Z,2.80
2023-01-30T15:07:37.042Z,2.70
2023-01-30T15:11:04.044Z,2.80
2023-01-30T15:14:11.877Z,2.80
2023-01-30T15:17:26.132Z,2.80
2023-01-30T15:20:33.953Z,2.90
2023-01-30T15:23:59.382Z,2.90
2023-01-30T15:27:31.693Z,2.80
2023-01-30T15:30:47.309Z,2.70
2023-01-30T15:33:46.328Z,2.70
2023-01-30T15:36:43.645Z,2.90
2023-01-30T15:39:40.409Z,2.80
2023-01-30T15:42:37.788Z,2.80
2023-01-30T15:45:55.314Z,2.90
2023-01-30T15:49:10.648Z,2.80
2023-01-30T15:52:14.949Z,2.80
2023-01-30T15:55:25.696Z,2.70
2023-01-30T15:58:22.941Z,2.80
2023-01-30T16:01:21.213Z,2.60
2023-01-30T16:04:28.750Z,2.60
2023-01-30T16:07:26.671Z,2.70
2023-01-30T16:10:26.276Z,2.80
2023-01-30T16:13:24.297Z,2.70
2023-01-30T16:16:21.163Z,2.70
2023-01-30T16:19:26.616Z,2.80
2023-01-30T16:22:23.554Z,2.80
2023-01-30T16:25:26.455Z,2.90
2023-01-30T16:28:24.838Z,2.80
2023-01-30T16:31:25.892Z,2.70
2023-01-30T16:34:30.313Z,2.90
2023-01-30T16:37:30.140Z,3.00
2023-01-30T16:40:42.476Z,2.90
2023-01-30T16:43:44.333Z,2.90
2023-01-30T16:46:57.035Z,3.00
2023-01-30T16:49:55.186Z,3.00
2023-01-30T16:52:54.465Z,2.90
2023-01-30T16:56:15.050Z,2.80
2023-01-30T16:59:20.769Z,2.70
2023-01-30T17:02:55.911Z,2.70
2023-01-30T17:05:52.810Z,2.70
2023-01-30T17:08:57.912Z,2.70
2023-01-30T17:11:54.680Z,2.70
2023-01-30T17:15:10.048Z,2.80
2023-01-30T17:18:07.601Z,2.70
2023-01-30T17:21:04.371Z,2.80
2023-01-30T17:24:03.503Z,2.80
2023-01-30T17:27:02.483Z,2.80
2023-01-30T17:29:59.331Z,2.80
2023-01-30T17:32:56.098Z,2.80
2023-01-30T17:35:52.853Z,2.80
2023-01-30T17:38:49.628Z,2.80
2023-01-30T17:41:46.809Z,2.70
2023-01-30T17:44:43.626Z,2.70
2023-01-30T17:47:40.572Z,2.70
2023-01-30T17:50:37.318Z,2.70
2023-01-30T17:53:34.296Z,2.70
2023-01-30T17:56:38.621Z,2.60
2023-01-30T17:59:35.405Z,2.60
2023-01-30T18:02:33.215Z,2.60
2023-01-30T18:05:30.123Z,2.50
2023-01-30T18:08:26.899Z,2.50
2023-01-30T18:11:23.657Z,2.50
2023-01-30T18:14:23.795Z,2.50
2023-01-30T18:17:21.345Z,2.60
2023-01-30T18:20:19.852Z,2.60
2023-01-30T18:23:16.852Z,2.60
2023-01-30T18:26:13.698Z,2.60
2023-01-30T18:29:10.934Z,2.50
2023-01-30T18:32:07.719Z,2.50
2023-01-30T18:35:05.386Z,2.60
2023-01-30T18:38:03.100Z,2.50
2023-01-30T18:41:05.551Z,2.50
2023-01-30T18:44:05.421Z,2.60
2023-01-30T18:47:02.263Z,2.60
2023-01-30T18:49:59.034Z,2.50
2023-01-30T18:52:55.838Z,2.70
2023-01-30T18:55:52.689Z,2.60
2023-01-30T18:58:49.771Z,2.60
2023-01-30T19:01:46.762Z,2.60
2023-01-30T19:04:43.586Z,2.60
2023-01-30T19:07:40.368Z,2.60
2023-01-30T19:10:37.133Z,2.60
2023-01-30T19:13:33.919Z,2.60
2023-01-30T19:16:32.142Z,2.70
2023-01-30T19:19:28.982Z,2.70
2023-01-30T19:22:26.087Z,2.60
2023-01-30T19:25:23.017Z,2.70
2023-01-30T19:28:20.473Z,2.60
2023-01-30T19:31:20.344Z,2.50
2023-01-30T19:34:17.330Z,2.60
2023-01-30T19:37:14.175Z,2.50
2023-01-30T19:40:11.502Z,2.40
2023-01-30T19:43:11.064Z,2.50
2023-01-30T19:46:10.870Z,2.60
2023-01-30T19:49:07.704Z,2.60
2023-01-30T19:52:04.655Z,2.50
2023-01-30T19:55:01.518Z,2.50
2023-01-30T19:57:58.296Z,2.50
2023-01-30T20:00:55.053Z,2.40
2023-01-30T20:03:51.819Z,2.30
2023-01-30T20:06:49.801Z,2.20
2023-01-30T20:09:46.808Z,2.20
2023-01-30T20:12:43.636Z,2.20
2023-01-30T20:15:40.413Z,2.30
2023-01-30T20:18:38.503Z,2.60
2023-01-30T20:21:36.010Z,2.60
2023-01-30T20:24:32.780Z,2.70
2023-01-30T20:27:29.594Z,2.60
2023-01-30T20:30:26.452Z,2.60
2023-01-30T20:33:24.639Z,2.60
2023-01-30T20:36:22.077Z,2.70
2023-01-30T20:39:20.765Z,2.70
2023-01-30T20:42:18.711Z,2.60
2023-01-30T20:45:15.483Z,2.50
2023-01-30T20:48:12.272Z,2.50
2023-01-30T20:51:12.188Z,2.50
2023-01-30T20:54:10.237Z,2.60
2023-01-30T20:57:07.097Z,2.50
2023-01-30T21:00:05.476Z,2.50
2023-01-30T21:03:02.241Z,2.40
2023-01-30T21:05:59.579Z,2.40
2023-01-30T21:08:56.370Z,2.30
2023-01-30T21:11:53.322Z,2.30
2023-01-30T21:14:51.227Z,2.30
2023-01-30T21:17:48.050Z,2.30
2023-01-30T21:20:49.842Z,2.30
2023-01-30T21:23:48.097Z,2.30
2023-01-30T21:26:46.248Z,2.30
2023-01-30T21:29:43.176Z,2.30
2023-01-30T21:32:40.260Z,2.50
2023-01-30T21:35:37.113Z,2.50
2023-01-30T21:38:52.519Z,2.70
2023-01-30T21:41:52.091Z,2.50
2023-01-30T21:44:48.853Z,2.50
2023-01-30T21:47:49.484Z,2.50
2023-01-30T21:50:47.272Z,2.60
2023-01-30T21:53:45.254Z,2.50
2023-01-30T21:56:42.165Z,2.60
2023-01-30T21:59:38.999Z,2.60
2023-01-30T22:02:35.754Z,2.50
2023-01-30T22:05:36.527Z,2.50
2023-01-30T22:08:35.253Z,2.50
2023-01-30T22:11:32.223Z,2.50
2023-01-30T22:14:29.277Z,2.40
2023-01-30T22:17:26.079Z,2.50
2023-01-30T22:20:22.840Z,2.50
2023-01-30T22:23:19.602Z,2.50
2023-01-30T22:26:17.991Z,2.50
2023-01-30T22:29:17.985Z,2.50
2023-01-30T22:32:14.745Z,2.50
2023-01-30T22:35:11.545Z,2.50
2023-01-30T22:38:08.302Z,2.50
2023-01-30T22:41:15.692Z,2.40
2023-01-30T22:44:12.546Z,2.40
2023-01-30T22:47:09.420Z,2.40
2023-01-30T22:50:06.643Z,2.20
2023-01-30T22:53:03.406Z,2.30
2023-01-30T22:56:05.099Z,2.30
2023-01-30T22:59:01.856Z,2.40
2023-01-30T23:01:58.651Z,2.40
2023-01-30T23:04:55.466Z,2.40
2023-01-30T23:07:52.241Z,2.30
2023-01-30T23:10:48.990Z,2.40
2023-01-30T23:13:48.065Z,2.50
2023-01-30T23:16:45.205Z,2.50
2023-01-30T23:19:42.019Z,2.50
2023-01-30T23:22:38.972Z,2.40
2023-01-30T23:25:40.457Z,2.50
2023-01-30T23:28:37.833Z,2.40
2023-01-30T23:31:35.479Z,2.30
2023-01-30T23:34:32.335Z,2.30
2023-01-30T23:37:47.679Z,2.30
2023-01-30T23:40:48.457Z,2.20
2023-01-30T23:43:46.509Z,2.20
2023-01-30T23:46:43.338Z,2.40
2023-01-30T23:49:40.185Z,2.40
2023-01-30T23:52:37.469Z,2.40
2023-01-30T23:55:34.370Z,2.30
2023-01-30T23:58:31.169Z,2.40
